createdAt,value
2022-09-11T00:01:36.363Z,14.30
2022-09-11T00:04:04.279Z,14.30
2022-09-11T00:06:31.295Z,14.30
2022-09-11T00:09:04.885Z,14.30
2022-09-11T00:11:42.875Z,14.30
2022-09-11T00:14:13.999Z,14.30
2022-09-11T00:16:45.131Z,14.30
2022-09-11T00:19:17.943Z,14.30
2022-09-11T00:21:45.798Z,14.20
2022-09-11T00:24:13.001Z,14.30
2022-09-11T00:26:41.241Z,14.20
2022-09-11T00:29:08.976Z,14.30
2022-09-11T00:31:36.055Z,14.30
2022-09-11T00:34:03.158Z,14.20
2022-09-11T00:36:31.757Z,14.30
2022-09-11T00:39:00.011Z,14.30
2022-09-11T00:41:46.401Z,14.30
2022-09-11T00:44:16.938Z,14.30
2022-09-11T00:46:52.042Z,14.30
2022-09-11T00:49:48.204Z,14.30
2022-09-11T00:52:29.499Z,14.30
2022-09-11T00:55:13.701Z,14.30
2022-09-11T00:57:50.578Z,14.30
2022-09-11T01:00:17.984Z,14.30
2022-09-11T01:02:48.554Z,14.30
2022-09-11T01:05:19.162Z,14.30
2022-09-11T01:07:47.674Z,14.30
2022-09-11T01:10:15.052Z,14.30
2022-09-11T01:13:01.391Z,14.30
2022-09-11T01:15:56.069Z,14.40
2022-09-11T01:18:35.228Z,14.20
2022-09-11T01:21:20.482Z,14.20
2022-09-11T01:24:23.018Z,14.20
2022-09-11T01:27:31.324Z,14.20
2022-09-11T01:30:11.458Z,14.20
2022-09-11T01:32:44.819Z,14.20
2022-09-11T01:35:22.437Z,14.30
2022-09-11T01:38:00.461Z,14.30
2022-09-11T01:40:37.563Z,14.30
2022-09-11T01:43:13.782Z,14.30
2022-09-11T01:45:46.459Z,14.30
2022-09-11T01:48:18.416Z,14.30
2022-09-11T01:50:47.935Z,14.30
2022-09-11T01:53:22.101Z,14.30
2022-09-11T01:56:05.776Z,14.30
2022-09-11T01:58:36.550Z,14.30
2022-09-11T02:01:29.038Z,14.30
2022-09-11T02:04:18.755Z,14.30
2022-09-11T02:07:08.929Z,14.30
2022-09-11T02:09:47.410Z,14.30
2022-09-11T02:12:17.458Z,14.30
2022-09-11T02:14:48.772Z,14.30
2022-09-11T02:17:49.366Z,14.40
2022-09-11T02:20:16.915Z,14.30
2022-09-11T02:22:44.264Z,14.30
2022-09-11T02:25:12.059Z,14.30
2022-09-11T02:27:39.360Z,14.30
2022-09-11T02:30:08.019Z,14.30
2022-09-11T02:32:38.877Z,14.20
2022-09-11T02:35:07.639Z,14.30
2022-09-11T02:38:08.779Z,14.30
2022-09-11T02:41:09.204Z,14.30
2022-09-11T02:43:55.607Z,14.30
2022-09-11T02:46:46.511Z,14.30
2022-09-11T02:49:57.657Z,14.20
2022-09-11T02:52:33.586Z,14.20
2022-09-11T02:55:19.632Z,14.20
2022-09-11T02:58:08.382Z,14.20
2022-09-11T03:00:35.609Z,14.10
2022-09-11T03:03:03.356Z,14.20
2022-09-11T03:05:30.347Z,14.20
2022-09-11T03:07:58.078Z,14.20
2022-09-11T03:10:27.687Z,14.20
2022-09-11T03:12:55.416Z,14.20
2022-09-11T03:15:23.755Z,14.30
2022-09-11T03:17:50.763Z,14.30
2022-09-11T03:20:18.071Z,14.30
2022-09-11T03:22:45.354Z,14.30
2022-09-11T03:25:12.415Z,14.30
2022-09-11T03:27:39.897Z,14.30
2022-09-11T03:30:08.559Z,14.40
2022-09-11T03:32:35.566Z,14.40
2022-09-11T03:35:02.663Z,14.40
2022-09-11T03:37:29.765Z,14.40
2022-09-11T03:39:56.812Z,14.40
2022-09-11T03:42:23.934Z,14.40
2022-09-11T03:44:50.954Z,14.40
2022-09-11T03:47:17.934Z,14.30
2022-09-11T03:49:44.930Z,14.40
2022-09-11T03:52:11.973Z,14.40
2022-09-11T03:54:39.843Z,14.40
2022-09-11T03:57:07.301Z,14.40
2022-09-11T03:59:34.494Z,14.40
2022-09-11T04:02:01.558Z,14.40
2022-09-11T04:04:28.633Z,14.40
2022-09-11T04:06:56.794Z,14.40
2022-09-11T04:09:24.265Z,14.50
2022-09-11T04:11:51.305Z,14.40
2022-09-11T04:14:19.422Z,14.40
2022-09-11T04:16:46.500Z,14.30
2022-09-11T04:19:14.696Z,14.30
2022-09-11T04:21:42.451Z,14.40
2022-09-11T04:24:10.774Z,14.40
2022-09-11T04:26:37.798Z,14.40
2022-09-11T04:29:04.991Z,14.40
2022-09-11T04:31:32.037Z,14.40
2022-09-11T04:33:59.713Z,14.40
2022-09-11T04:36:27.301Z,14.40
2022-09-11T04:38:58.804Z,14.40
2022-09-11T04:41:26.555Z,14.40
2022-09-11T04:44:03.835Z,14.40
2022-09-11T04:46:32.135Z,14.40
2022-09-11T04:49:02.424Z,14.40
2022-09-11T04:51:35.691Z,14.30
2022-09-11T04:54:04.243Z,14.30
2022-09-11T04:56:34.359Z,14.40
2022-09-11T04:59:16.350Z,14.30
2022-09-11T05:01:44.276Z,14.40
2022-09-11T05:04:16.185Z,14.40
2022-09-11T05:06:48.370Z,14.40
2022-09-11T05:09:17.500Z,14.30
2022-09-11T05:11:44.555Z,14.30
2022-09-11T05:14:12.774Z,14.30
2022-09-11T05:16:39.956Z,14.30
2022-09-11T05:19:07.023Z,14.30
2022-09-11T05:21:34.733Z,14.30
2022-09-11T05:24:03.174Z,14.30
2022-09-11T05:26:34.478Z,14.20
2022-09-11T05:29:09.260Z,14.30
2022-09-11T05:31:37.362Z,14.30
2022-09-11T05:34:05.867Z,14.20
2022-09-11T05:36:34.347Z,14.20
2022-09-11T05:39:01.526Z,14.10
2022-09-11T05:41:28.540Z,14.20
2022-09-11T05:43:55.776Z,14.20
2022-09-11T05:46:26.063Z,14.20
2022-09-11T05:48:53.673Z,14.10
2022-09-11T05:51:22.209Z,14.20
2022-09-11T05:53:54.300Z,14.20
2022-09-11T05:56:24.618Z,14.20
2022-09-11T05:58:53.341Z,14.20
2022-09-11T06:01:23.977Z,14.30
2022-09-11T06:03:51.497Z,14.30
2022-09-11T06:06:22.515Z,14.40
2022-09-11T06:08:51.125Z,14.40
2022-09-11T06:11:20.143Z,14.50
2022-09-11T06:13:48.076Z,14.50
2022-09-11T06:16:19.155Z,14.50
2022-09-11T06:18:52.974Z,14.60
2022-09-11T06:21:23.701Z,14.70
2022-09-11T06:23:52.454Z,14.70
2022-09-11T06:26:26.421Z,14.80
2022-09-11T06:28:54.589Z,14.80
2022-09-11T06:31:25.567Z,14.70
2022-09-11T06:33:53.100Z,14.70
2022-09-11T06:36:24.419Z,14.70
2022-09-11T06:38:57.345Z,14.70
2022-09-11T06:41:26.409Z,14.70
2022-09-11T06:43:53.985Z,14.60
2022-09-11T06:46:23.624Z,14.60
2022-09-11T06:48:51.979Z,14.60
2022-09-11T06:51:22.511Z,14.50
2022-09-11T06:53:54.306Z,14.50
2022-09-11T06:56:24.439Z,14.50
2022-09-11T06:58:51.480Z,14.50
2022-09-11T07:01:20.678Z,14.50
2022-09-11T07:03:50.489Z,14.50
2022-09-11T07:06:24.119Z,14.50
2022-09-11T07:09:00.959Z,14.60
2022-09-11T07:11:32.396Z,14.60
2022-09-11T07:14:01.569Z,14.70
2022-09-11T07:16:28.714Z,14.70
2022-09-11T07:18:56.106Z,14.70
2022-09-11T07:21:26.826Z,14.80
2022-09-11T07:23:57.673Z,14.80
2022-09-11T07:26:28.668Z,14.90
2022-09-11T07:28:57.712Z,15.00
2022-09-11T07:31:29.455Z,15.00
2022-09-11T07:33:57.304Z,15.10
2022-09-11T07:36:30.269Z,15.20
2022-09-11T07:38:58.840Z,15.30
2022-09-11T07:41:27.793Z,15.40
2022-09-11T07:43:57.870Z,15.60
2022-09-11T07:46:26.832Z,15.70
2022-09-11T07:48:55.774Z,15.90
2022-09-11T07:51:22.854Z,16.10
2022-09-11T07:53:52.439Z,16.30
2022-09-11T07:56:25.473Z,16.50
2022-09-11T07:58:57.746Z,16.60
2022-09-11T08:01:29.695Z,16.70
2022-09-11T08:03:59.142Z,16.70
2022-09-11T08:06:32.777Z,16.70
2022-09-11T08:09:04.850Z,16.70
2022-09-11T08:11:36.428Z,16.60
2022-09-11T08:14:04.214Z,16.60
2022-09-11T08:16:31.627Z,16.70
2022-09-11T08:18:58.947Z,16.70
2022-09-11T08:21:26.463Z,16.70
2022-09-11T08:23:54.030Z,16.80
2022-09-11T08:26:30.282Z,16.80
2022-09-11T08:29:00.191Z,16.80
2022-09-11T08:31:28.471Z,16.90
2022-09-11T08:33:56.305Z,17.00
2022-09-11T08:36:25.556Z,17.10
2022-09-11T08:38:52.955Z,17.20
2022-09-11T08:41:31.094Z,17.20
2022-09-11T08:44:15.235Z,17.20
2022-09-11T08:46:47.823Z,17.30
2022-09-11T08:49:43.025Z,17.30
2022-09-11T08:52:14.616Z,17.50
2022-09-11T08:54:46.148Z,17.50
2022-09-11T08:57:28.689Z,17.30
2022-09-11T09:00:23.529Z,17.30
2022-09-11T09:03:21.155Z,17.30
2022-09-11T09:06:12.918Z,17.50
2022-09-11T09:08:51.733Z,17.50
2022-09-11T09:11:52.693Z,17.60
2022-09-11T09:15:25.194Z,17.50
2022-09-11T09:18:17.844Z,17.50
2022-09-11T09:20:52.721Z,17.40
2022-09-11T09:23:25.515Z,17.50
2022-09-11T09:25:54.663Z,17.70
2022-09-11T09:28:38.881Z,17.90
2022-09-11T09:31:10.500Z,18.10
2022-09-11T09:34:01.428Z,18.30
2022-09-11T09:36:41.408Z,18.40
2022-09-11T09:39:15.949Z,18.50
2022-09-11T09:42:16.951Z,18.40
2022-09-11T09:45:02.055Z,18.30
2022-09-11T09:47:29.851Z,18.20
2022-09-11T09:49:58.563Z,18.20
2022-09-11T09:52:36.170Z,18.10
2022-09-11T09:55:18.183Z,17.80
2022-09-11T09:57:45.476Z,17.50
2022-09-11T10:00:18.048Z,17.60
2022-09-11T10:02:56.615Z,17.40
2022-09-11T10:05:33.167Z,17.40
2022-09-11T10:08:05.982Z,17.40
2022-09-11T10:10:38.555Z,17.20
2022-09-11T10:13:22.399Z,17.10
2022-09-11T10:15:50.146Z,17.00
2022-09-11T10:18:32.549Z,16.90
2022-09-11T10:21:30.281Z,16.90
2022-09-11T10:24:01.395Z,17.00
2022-09-11T10:26:35.709Z,17.10
2022-09-11T10:29:14.386Z,17.10
2022-09-11T10:31:50.082Z,17.00
2022-09-11T10:34:22.643Z,17.10
2022-09-11T10:37:00.792Z,16.80
2022-09-11T10:39:32.116Z,16.60
2022-09-11T10:42:11.909Z,16.40
2022-09-11T10:44:46.074Z,16.40
2022-09-11T10:47:26.218Z,16.40
2022-09-11T10:50:18.174Z,16.40
2022-09-11T10:53:20.722Z,16.50
2022-09-11T10:55:58.512Z,16.60
2022-09-11T10:58:33.585Z,16.70
2022-09-11T11:01:01.641Z,16.80
2022-09-11T11:03:29.752Z,17.00
2022-09-11T11:06:34.511Z,17.30
2022-09-11T11:09:38.594Z,17.50
2022-09-11T11:12:19.406Z,18.10
2022-09-11T11:15:29.490Z,18.80
2022-09-11T11:18:23.127Z,19.80
2022-09-11T11:21:18.570Z,20.70
2022-09-11T11:24:00.944Z,21.50
2022-09-11T11:26:49.521Z,22.00
2022-09-11T11:29:52.840Z,21.90
2022-09-11T11:32:55.024Z,21.60
2022-09-11T11:35:51.670Z,21.20
2022-09-11T11:38:34.516Z,20.80
2022-09-11T11:41:39.638Z,20.50
2022-09-11T11:44:28.979Z,20.00
2022-09-11T11:47:03.708Z,20.00
2022-09-11T11:49:55.457Z,20.10
2022-09-11T11:52:31.359Z,20.10
2022-09-11T11:55:22.880Z,20.30
2022-09-11T11:58:22.989Z,20.40
2022-09-11T12:00:58.371Z,20.60
2022-09-11T12:03:51.173Z,20.90
2022-09-11T12:06:20.459Z,21.00
2022-09-11T12:08:47.905Z,21.00
2022-09-11T12:11:31.283Z,21.10
2022-09-11T12:13:59.332Z,21.10
2022-09-11T12:16:34.035Z,21.00
2022-09-11T12:19:07.694Z,20.90
2022-09-11T12:22:07.212Z,20.90
2022-09-11T12:24:55.138Z,20.80
2022-09-11T12:27:34.659Z,20.50
2022-09-11T12:30:23.988Z,20.40
2022-09-11T12:33:02.493Z,20.30
2022-09-11T12:35:41.823Z,20.30
2022-09-11T12:38:22.256Z,20.20
2022-09-11T12:41:07.481Z,20.30
2022-09-11T12:43:37.439Z,20.70
2022-09-11T12:46:34.683Z,21.10
2022-09-11T12:49:26.010Z,21.60
2022-09-11T12:52:01.491Z,22.30
2022-09-11T12:54:42.422Z,23.00
2022-09-11T12:57:24.607Z,23.00
2022-09-11T13:00:00.963Z,22.80
2022-09-11T13:02:42.516Z,22.60
2022-09-11T13:05:27.467Z,22.40
2022-09-11T13:07:59.723Z,22.10
2022-09-11T13:10:39.188Z,21.70
2022-09-11T13:13:39.321Z,21.50
2022-09-11T13:16:28.698Z,21.40
2022-09-11T13:19:14.513Z,21.20
2022-09-11T13:21:42.670Z,21.10
2022-09-11T13:24:30.356Z,21.10
2022-09-11T13:27:06.629Z,21.20
2022-09-11T13:29:40.146Z,21.30
2022-09-11T13:32:14.948Z,21.70
2022-09-11T13:34:59.445Z,21.90
2022-09-11T13:37:54.338Z,21.90
2022-09-11T13:40:28.410Z,21.70
2022-09-11T13:42:57.185Z,21.50
2022-09-11T13:45:25.030Z,21.50
2022-09-11T13:47:53.090Z,21.40
2022-09-11T13:50:21.039Z,21.30
2022-09-11T13:52:49.612Z,21.30
2022-09-11T13:55:21.767Z,21.20
2022-09-11T13:58:02.037Z,21.10
2022-09-11T14:00:48.938Z,21.10
2022-09-11T14:03:28.110Z,21.10
2022-09-11T14:06:01.850Z,21.20
2022-09-11T14:08:35.251Z,21.30
2022-09-11T14:11:11.434Z,21.40
2022-09-11T14:13:46.915Z,21.70
2022-09-11T14:16:16.174Z,21.80
2022-09-11T14:18:54.118Z,22.00
2022-09-11T14:21:32.593Z,22.30
2022-09-11T14:24:00.295Z,22.90
2022-09-11T14:26:36.084Z,23.30
2022-09-11T14:29:19.615Z,23.40
2022-09-11T14:31:47.067Z,23.10
2022-09-11T14:34:17.999Z,22.50
2022-09-11T14:36:57.862Z,22.20
2022-09-11T14:39:43.084Z,22.00
2022-09-11T14:42:16.968Z,21.80
2022-09-11T14:44:44.287Z,21.70
2022-09-11T14:47:26.385Z,21.40
2022-09-11T14:49:56.338Z,21.50
2022-09-11T14:52:26.844Z,21.50
2022-09-11T14:54:54.380Z,21.60
2022-09-11T14:57:24.887Z,21.80
2022-09-11T14:59:52.637Z,22.00
2022-09-11T15:02:25.805Z,22.10
2022-09-11T15:04:55.215Z,22.30
2022-09-11T15:07:25.062Z,22.20
2022-09-11T15:09:55.683Z,22.20
2022-09-11T15:12:23.125Z,22.10
2022-09-11T15:14:57.043Z,22.20
2022-09-11T15:17:28.873Z,22.20
2022-09-11T15:19:55.871Z,22.20
2022-09-11T15:22:23.297Z,22.20
2022-09-11T15:24:50.418Z,22.00
2022-09-11T15:27:19.169Z,22.10
2022-09-11T15:29:46.275Z,22.20
2022-09-11T15:32:14.540Z,22.20
2022-09-11T15:34:43.955Z,22.30
2022-09-11T15:37:11.772Z,22.30
2022-09-11T15:39:38.946Z,22.20
2022-09-11T15:42:07.602Z,22.20
2022-09-11T15:44:36.690Z,22.20
2022-09-11T15:47:04.635Z,22.30
2022-09-11T15:49:31.827Z,22.30
2022-09-11T15:51:59.769Z,22.30
2022-09-11T15:54:27.672Z,22.40
2022-09-11T15:56:55.029Z,22.40
2022-09-11T15:59:22.538Z,22.30
2022-09-11T16:01:50.167Z,22.20
2022-09-11T16:04:21.996Z,22.10
2022-09-11T16:06:50.229Z,22.00
2022-09-11T16:09:21.778Z,21.80
2022-09-11T16:11:50.640Z,21.60
2022-09-11T16:14:22.027Z,21.40
2022-09-11T16:16:49.586Z,21.20
2022-09-11T16:19:20.119Z,21.00
2022-09-11T16:21:47.745Z,20.90
2022-09-11T16:24:15.543Z,20.70
2022-09-11T16:26:44.277Z,20.40
2022-09-11T16:29:14.843Z,20.20
2022-09-11T16:31:42.695Z,20.00
2022-09-11T16:34:11.117Z,19.80
2022-09-11T16:36:38.854Z,19.50
2022-09-11T16:39:09.195Z,19.40
2022-09-11T16:41:37.270Z,19.30
2022-09-11T16:44:06.879Z,19.20
2022-09-11T16:46:34.705Z,19.00
2022-09-11T16:49:02.355Z,18.90
2022-09-11T16:51:30.502Z,18.70
2022-09-11T16:53:57.782Z,18.50
2022-09-11T16:56:25.986Z,18.30
2022-09-11T16:58:54.580Z,18.10
2022-09-11T17:01:27.458Z,18.00
2022-09-11T17:03:57.262Z,17.90
2022-09-11T17:06:30.163Z,17.70
2022-09-11T17:09:00.274Z,17.60
2022-09-11T17:11:31.210Z,17.50
2022-09-11T17:14:01.646Z,17.40
2022-09-11T17:16:32.205Z,17.20
2022-09-11T17:19:01.595Z,17.10
2022-09-11T17:21:35.750Z,17.00
2022-09-11T17:24:06.313Z,17.00
2022-09-11T17:26:33.935Z,16.90
2022-09-11T17:29:04.962Z,16.80
2022-09-11T17:31:32.518Z,16.80
2022-09-11T17:33:59.699Z,16.70
2022-09-11T17:36:26.836Z,16.60
2022-09-11T17:38:55.217Z,16.50
2022-09-11T17:41:22.277Z,16.40
2022-09-11T17:43:49.631Z,16.30
2022-09-11T17:46:23.564Z,16.30
2022-09-11T17:48:50.983Z,16.20
2022-09-11T17:51:27.960Z,16.10
2022-09-11T17:53:58.338Z,16.00
2022-09-11T17:56:30.818Z,15.90
2022-09-11T17:58:59.891Z,15.90
2022-09-11T18:01:29.230Z,15.80
2022-09-11T18:03:58.702Z,15.80
2022-09-11T18:06:37.782Z,15.70
2022-09-11T18:09:16.427Z,15.70
2022-09-11T18:11:46.046Z,15.60
2022-09-11T18:14:14.442Z,15.50
2022-09-11T18:16:45.314Z,15.40
2022-09-11T18:19:14.287Z,15.30
2022-09-11T18:21:42.239Z,15.20
2022-09-11T18:24:11.305Z,15.10
2022-09-11T18:26:40.176Z,15.10
2022-09-11T18:29:12.632Z,15.00
2022-09-11T18:31:46.224Z,14.90
2022-09-11T18:34:16.955Z,14.80
2022-09-11T18:36:45.227Z,14.80
2022-09-11T18:39:15.110Z,14.70
2022-09-11T18:41:44.456Z,14.60
2022-09-11T18:44:19.877Z,14.60
2022-09-11T18:46:47.887Z,14.50
2022-09-11T18:49:16.364Z,14.50
2022-09-11T18:51:45.030Z,14.50
2022-09-11T18:54:17.783Z,14.40
2022-09-11T18:56:45.668Z,14.40
2022-09-11T18:59:13.881Z,14.40
2022-09-11T19:01:41.467Z,14.30
2022-09-11T19:04:12.248Z,14.30
2022-09-11T19:06:40.272Z,14.30
2022-09-11T19:09:12.817Z,14.20
2022-09-11T19:11:40.874Z,14.20
2022-09-11T19:14:10.891Z,14.10
2022-09-11T19:16:39.283Z,14.10
2022-09-11T19:19:07.646Z,14.10
2022-09-11T19:21:35.072Z,14.10
2022-09-11T19:24:02.713Z,14.00
2022-09-11T19:26:38.278Z,14.00
2022-09-11T19:29:10.614Z,14.00
2022-09-11T19:31:39.456Z,13.90
2022-09-11T19:34:08.471Z,13.90
2022-09-11T19:36:36.613Z,13.90
2022-09-11T19:39:05.383Z,13.80
2022-09-11T19:41:37.429Z,13.80
2022-09-11T19:44:08.331Z,13.80
2022-09-11T19:46:38.110Z,13.70
2022-09-11T19:49:06.715Z,13.70
2022-09-11T19:51:45.048Z,13.70
2022-09-11T19:54:14.421Z,13.70
2022-09-11T19:56:44.395Z,13.70
2022-09-11T19:59:13.660Z,13.60
2022-09-11T20:01:40.759Z,13.60
2022-09-11T20:04:07.931Z,13.50
2022-09-11T20:06:35.675Z,13.50
2022-09-11T20:09:29.303Z,13.50
2022-09-11T20:11:51.640Z,13.40
2022-09-11T20:14:18.878Z,13.40
2022-09-11T20:16:46.142Z,13.40
2022-09-11T20:19:15.040Z,13.30
2022-09-11T20:21:42.255Z,13.40
2022-09-11T20:24:09.373Z,13.30
2022-09-11T20:26:36.792Z,13.30
2022-09-11T20:29:10.969Z,13.40
2022-09-11T20:31:47.086Z,13.30
2022-09-11T20:34:19.361Z,13.30
2022-09-11T20:36:47.138Z,13.30
2022-09-11T20:39:15.859Z,13.30
2022-09-11T20:41:43.408Z,13.20
2022-09-11T20:44:10.711Z,13.20
2022-09-11T20:46:40.057Z,13.20
2022-09-11T20:49:07.130Z,13.10
2022-09-11T20:51:36.937Z,13.10
2022-09-11T20:54:04.227Z,13.00
2022-09-11T20:56:31.959Z,13.00
2022-09-11T20:59:00.744Z,13.00
2022-09-11T21:01:34.064Z,13.00
2022-09-11T21:04:04.624Z,12.90
2022-09-11T21:06:34.582Z,12.90
2022-09-11T21:09:08.942Z,12.90
2022-09-11T21:11:37.251Z,12.90
2022-09-11T21:14:05.851Z,12.90
2022-09-11T21:16:33.703Z,12.80
2022-09-11T21:19:05.204Z,12.80
2022-09-11T21:21:34.255Z,12.80
2022-09-11T21:24:04.962Z,12.70
2022-09-11T21:26:34.450Z,12.80
2022-09-11T21:29:06.499Z,12.70
2022-09-11T21:31:34.749Z,12.70
2022-09-11T21:34:02.694Z,12.70
2022-09-11T21:36:30.006Z,12.60
2022-09-11T21:38:57.112Z,12.60
2022-09-11T21:41:24.115Z,12.60
2022-09-11T21:43:51.122Z,12.60
2022-09-11T21:46:18.430Z,12.60
2022-09-11T21:48:45.543Z,12.50
2022-09-11T21:51:15.947Z,12.50
2022-09-11T21:53:46.042Z,12.40
2022-09-11T21:56:29.565Z,12.40
2022-09-11T21:58:57.502Z,12.40
2022-09-11T22:01:26.547Z,12.40
2022-09-11T22:03:54.512Z,12.40
2022-09-11T22:06:25.076Z,12.40
2022-09-11T22:08:53.592Z,12.40
2022-09-11T22:11:21.148Z,12.40
2022-09-11T22:13:48.294Z,12.40
2022-09-11T22:16:19.011Z,12.30
2022-09-11T22:18:52.537Z,12.30
2022-09-11T22:21:19.916Z,12.30
2022-09-11T22:23:47.044Z,12.40
2022-09-11T22:26:18.807Z,12.30
2022-09-11T22:28:46.218Z,12.30
2022-09-11T22:31:18.763Z,12.20
2022-09-11T22:33:46.197Z,12.20
2022-09-11T22:36:26.974Z,12.20
2022-09-11T22:38:54.947Z,12.20
2022-09-11T22:41:23.398Z,12.20
2022-09-11T22:43:50.551Z,12.10
2022-09-11T22:46:20.967Z,12.10
2022-09-11T22:48:48.965Z,12.10
2022-09-11T22:51:16.809Z,12.10
2022-09-11T22:53:44.145Z,12.00
2022-09-11T22:56:13.842Z,12.00
2022-09-11T22:58:41.922Z,12.00
2022-09-11T23:01:12.062Z,12.00
2022-09-11T23:03:39.194Z,12.00
2022-09-11T23:06:25.084Z,11.90
2022-09-11T23:08:52.663Z,11.90
2022-09-11T23:11:20.784Z,11.90
2022-09-11T23:13:49.762Z,11.80
2022-09-11T23:16:24.266Z,11.80
2022-09-11T23:18:57.007Z,11.80
2022-09-11T23:21:25.865Z,11.80
2022-09-11T23:23:55.826Z,11.80
2022-09-11T23:26:27.788Z,11.80
2022-09-11T23:28:55.950Z,11.90
2022-09-11T23:31:31.295Z,11.90
2022-09-11T23:34:06.519Z,11.90
2022-09-11T23:36:35.079Z,11.90
2022-09-11T23:39:02.990Z,11.80
2022-09-11T23:41:32.022Z,11.70
2022-09-11T23:43:59.319Z,11.60
2022-09-11T23:46:26.979Z,11.60
2022-09-11T23:48:54.064Z,11.60
2022-09-11T23:51:21.441Z,11.60
2022-09-11T23:53:51.576Z,11.60
2022-09-11T23:56:19.475Z,11.60
2022-09-11T23:58:46.791Z,11.60
